sensor_id;sensor_type;location;lat;lon;timestamp;P1;durP1;ratioP1;P2;durP2;ratioP2
2866;SDS011;1441;48.886;8.728;2022-11-20T00:02:14;9.10;;;7.70;;
2866;SDS011;1441;48.886;8.728;2022-11-20T00:04:40;10.50;;;7.33;;
2866;SDS011;1441;48.886;8.728;2022-11-20T00:07:06;12.47;;;7.60;;
2866;SDS011;1441;48.886;8.728;2022-11-20T00:09:31;10.10;;;7.30;;
2866;SDS011;1441;48.886;8.728;2022-11-20T00:11:57;9.13;;;7.60;;
2866;SDS011;1441;48.886;8.728;2022-11-20T00:14:22;12.30;;;7.93;;
2866;SDS011;1441;48.886;8.728;2022-11-20T00:16:48;10.63;;;7.40;;
2866;SDS011;1441;48.886;8.728;2022-11-20T00:19:14;8.43;;;7.00;;
2866;SDS011;1441;48.886;8.728;2022-11-20T00:21:40;11.03;;;7.40;;
2866;SDS011;1441;48.886;8.728;2022-11-20T00:24:05;10.90;;;7.17;;
2866;SDS011;1441;48.886;8.728;2022-11-20T00:26:33;9.70;;;7.27;;
2866;SDS011;1441;48.886;8.728;2022-11-20T00:29:00;10.33;;;7.93;;
2866;SDS011;1441;48.886;8.728;2022-11-20T00:31:26;6.93;;;5.93;;
2866;SDS011;1441;48.886;8.728;2022-11-20T00:33:53;7.93;;;6.23;;
2866;SDS011;1441;48.886;8.728;2022-11-20T00:36:25;14.17;;;6.40;;
2866;SDS011;1441;48.886;8.728;2022-11-20T00:38:53;7.53;;;6.07;;
2866;SDS011;1441;48.886;8.728;2022-11-20T00:41:21;7.17;;;5.40;;
2866;SDS011;1441;48.886;8.728;2022-11-20T00:43:47;7.23;;;5.50;;
2866;SDS011;1441;48.886;8.728;2022-11-20T00:46:16;8.20;;;6.20;;
2866;SDS011;1441;48.886;8.728;2022-11-20T00:48:43;7.37;;;5.27;;
2866;SDS011;1441;48.886;8.728;2022-11-20T00:51:10;7.20;;;5.60;;
2866;SDS011;1441;48.886;8.728;2022-11-20T00:53:38;5.63;;;4.60;;
2866;SDS011;1441;48.886;8.728;2022-11-20T00:56:05;5.73;;;4.80;;
2866;SDS011;1441;48.886;8.728;2022-11-20T00:58:33;6.70;;;4.83;;
2866;SDS011;1441;48.886;8.728;2022-11-20T01:01:00;5.17;;;4.67;;
2866;SDS011;1441;48.886;8.728;2022-11-20T01:03:31;5.77;;;4.33;;
2866;SDS011;1441;48.886;8.728;2022-11-20T01:06:01;6.60;;;4.57;;
2866;SDS011;1441;48.886;8.728;2022-11-20T01:08:31;5.20;;;4.20;;
2866;SDS011;1441;48.886;8.728;2022-11-20T01:10:59;4.30;;;3.47;;
2866;SDS011;1441;48.886;8.728;2022-11-20T01:13:30;4.40;;;3.70;;
2866;SDS011;1441;48.886;8.728;2022-11-20T01:18:43;7.33;;;3.90;;
2866;SDS011;1441;48.886;8.728;2022-11-20T01:21:12;4.40;;;3.60;;
2866;SDS011;1441;48.886;8.728;2022-11-20T01:23:40;5.83;;;3.90;;
2866;SDS011;1441;48.886;8.728;2022-11-20T01:26:08;3.47;;;3.13;;
2866;SDS011;1441;48.886;8.728;2022-11-20T01:28:37;3.70;;;3.10;;
2866;SDS011;1441;48.886;8.728;2022-11-20T01:31:10;6.90;;;3.60;;
2866;SDS011;1441;48.886;8.728;2022-11-20T01:33:38;3.40;;;3.10;;
2866;SDS011;1441;48.886;8.728;2022-11-20T01:36:05;4.50;;;3.50;;
2866;SDS011;1441;48.886;8.728;2022-11-20T01:38:32;5.43;;;3.33;;
2866;SDS011;1441;48.886;8.728;2022-11-20T01:40:58;4.47;;;4.03;;
2866;SDS011;1441;48.886;8.728;2022-11-20T01:43:24;2.93;;;2.73;;
2866;SDS011;1441;48.886;8.728;2022-11-20T01:45:58;4.73;;;3.10;;
2866;SDS011;1441;48.886;8.728;2022-11-20T01:48:49;5.13;;;3.67;;
2866;SDS011;1441;48.886;8.728;2022-11-20T01:53:53;4.17;;;3.87;;
2866;SDS011;1441;48.886;8.728;2022-11-20T01:56:22;3.97;;;3.63;;
2866;SDS011;1441;48.886;8.728;2022-11-20T01:58:54;5.00;;;3.57;;
2866;SDS011;1441;48.886;8.728;2022-11-20T02:01:23;5.20;;;4.17;;
2866;SDS011;1441;48.886;8.728;2022-11-20T02:03:49;5.50;;;3.80;;
2866;SDS011;1441;48.886;8.728;2022-11-20T02:06:29;7.57;;;4.60;;
2866;SDS011;1441;48.886;8.728;2022-11-20T02:09:00;5.77;;;4.00;;
2866;SDS011;1441;48.886;8.728;2022-11-20T02:11:25;3.77;;;3.30;;
2866;SDS011;1441;48.886;8.728;2022-11-20T02:13:51;4.47;;;3.83;;
2866;SDS011;1441;48.886;8.728;2022-11-20T02:18:50;4.13;;;3.83;;
2866;SDS011;1441;48.886;8.728;2022-11-20T02:21:36;4.43;;;3.70;;
2866;SDS011;1441;48.886;8.728;2022-11-20T02:24:11;5.63;;;4.40;;
2866;SDS011;1441;48.886;8.728;2022-11-20T02:26:44;4.60;;;3.20;;
2866;SDS011;1441;48.886;8.728;2022-11-20T02:29:15;4.17;;;3.73;;
2866;SDS011;1441;48.886;8.728;2022-11-20T02:31:44;5.93;;;4.00;;
2866;SDS011;1441;48.886;8.728;2022-11-20T02:34:10;3.60;;;3.37;;
2866;SDS011;1441;48.886;8.728;2022-11-20T02:36:36;3.53;;;3.20;;
2866;SDS011;1441;48.886;8.728;2022-11-20T02:39:06;3.37;;;3.07;;
2866;SDS011;1441;48.886;8.728;2022-11-20T02:41:33;5.70;;;3.17;;
2866;SDS011;1441;48.886;8.728;2022-11-20T02:44:01;3.77;;;3.47;;
2866;SDS011;1441;48.886;8.728;2022-11-20T02:46:27;3.77;;;2.97;;
2866;SDS011;1441;48.886;8.728;2022-11-20T02:48:52;4.20;;;3.73;;
2866;SDS011;1441;48.886;8.728;2022-11-20T02:51:18;3.70;;;3.30;;
2866;SDS011;1441;48.886;8.728;2022-11-20T02:53:43;3.53;;;3.20;;
2866;SDS011;1441;48.886;8.728;2022-11-20T02:56:09;3.40;;;3.10;;
2866;SDS011;1441;48.886;8.728;2022-11-20T02:58:35;4.93;;;3.20;;
2866;SDS011;1441;48.886;8.728;2022-11-20T03:01:00;3.27;;;2.97;;
2866;SDS011;1441;48.886;8.728;2022-11-20T03:03:26;3.23;;;2.90;;
2866;SDS011;1441;48.886;8.728;2022-11-20T03:05:51;3.43;;;3.00;;
2866;SDS011;1441;48.886;8.728;2022-11-20T03:08:17;5.77;;;3.00;;
2866;SDS011;1441;48.886;8.728;2022-11-20T03:10:43;3.10;;;2.50;;
2866;SDS011;1441;48.886;8.728;2022-11-20T03:13:08;2.70;;;2.60;;
2866;SDS011;1441;48.886;8.728;2022-11-20T03:15:35;3.03;;;2.77;;
2866;SDS011;1441;48.886;8.728;2022-11-20T03:18:02;8.40;;;3.30;;
2866;SDS011;1441;48.886;8.728;2022-11-20T03:20:28;5.90;;;2.33;;
2866;SDS011;1441;48.886;8.728;2022-11-20T03:22:53;3.00;;;2.80;;
2866;SDS011;1441;48.886;8.728;2022-11-20T03:25:19;3.97;;;2.57;;
2866;SDS011;1441;48.886;8.728;2022-11-20T03:27:46;2.50;;;2.30;;
2866;SDS011;1441;48.886;8.728;2022-11-20T03:30:11;3.60;;;2.30;;
2866;SDS011;1441;48.886;8.728;2022-11-20T03:32:37;3.70;;;2.27;;
2866;SDS011;1441;48.886;8.728;2022-11-20T03:35:03;4.13;;;2.60;;
2866;SDS011;1441;48.886;8.728;2022-11-20T03:37:29;2.47;;;2.27;;
2866;SDS011;1441;48.886;8.728;2022-11-20T03:39:54;2.03;;;1.83;;
2866;SDS011;1441;48.886;8.728;2022-11-20T03:42:20;2.10;;;2.00;;
2866;SDS011;1441;48.886;8.728;2022-11-20T03:45:04;3.10;;;2.67;;
2866;SDS011;1441;48.886;8.728;2022-11-20T03:47:30;2.60;;;2.40;;
2866;SDS011;1441;48.886;8.728;2022-11-20T03:49:55;4.00;;;2.90;;
2866;SDS011;1441;48.886;8.728;2022-11-20T03:52:21;2.50;;;2.30;;
2866;SDS011;1441;48.886;8.728;2022-11-20T03:54:47;2.23;;;2.00;;
2866;SDS011;1441;48.886;8.728;2022-11-20T03:57:12;4.70;;;2.30;;
2866;SDS011;1441;48.886;8.728;2022-11-20T03:59:38;2.50;;;2.30;;
2866;SDS011;1441;48.886;8.728;2022-11-20T04:02:03;3.53;;;2.60;;
2866;SDS011;1441;48.886;8.728;2022-11-20T04:04:29;2.40;;;1.90;;
2866;SDS011;1441;48.886;8.728;2022-11-20T04:06:54;2.47;;;2.27;;
2866;SDS011;1441;48.886;8.728;2022-11-20T04:09:20;3.87;;;2.33;;
2866;SDS011;1441;48.886;8.728;2022-11-20T04:11:46;2.27;;;2.17;;
2866;SDS011;1441;48.886;8.728;2022-11-20T04:14:12;3.47;;;1.67;;
2866;SDS011;1441;48.886;8.728;2022-11-20T04:16:40;2.50;;;1.93;;
2866;SDS011;1441;48.886;8.728;2022-11-20T04:19:08;3.70;;;2.23;;
2866;SDS011;1441;48.886;8.728;2022-11-20T04:21:36;2.40;;;2.27;;
2866;SDS011;1441;48.886;8.728;2022-11-20T04:24:02;3.10;;;2.23;;
2866;SDS011;1441;48.886;8.728;2022-11-20T04:26:29;2.50;;;2.30;;
2866;SDS011;1441;48.886;8.728;2022-11-20T04:28:55;1.90;;;1.80;;
2866;SDS011;1441;48.886;8.728;2022-11-20T04:31:22;1.83;;;1.70;;
2866;SDS011;1441;48.886;8.728;2022-11-20T04:33:53;1.83;;;1.73;;
2866;SDS011;1441;48.886;8.728;2022-11-20T04:36:19;2.50;;;2.00;;
2866;SDS011;1441;48.886;8.728;2022-11-20T04:38:50;2.70;;;2.00;;
2866;SDS011;1441;48.886;8.728;2022-11-20T04:41:19;2.73;;;2.07;;
2866;SDS011;1441;48.886;8.728;2022-11-20T04:43:47;6.90;;;1.70;;
2866;SDS011;1441;48.886;8.728;2022-11-20T04:46:13;5.27;;;2.30;;
2866;SDS011;1441;48.886;8.728;2022-11-20T04:48:39;2.07;;;1.87;;
2866;SDS011;1441;48.886;8.728;2022-11-20T04:51:05;2.47;;;2.27;;
2866;SDS011;1441;48.886;8.728;2022-11-20T04:53:31;2.53;;;1.67;;
2866;SDS011;1441;48.886;8.728;2022-11-20T04:56:00;1.67;;;1.57;;
2866;SDS011;1441;48.886;8.728;2022-11-20T04:58:26;2.20;;;2.07;;
2866;SDS011;1441;48.886;8.728;2022-11-20T05:00:52;2.37;;;1.93;;
2866;SDS011;1441;48.886;8.728;2022-11-20T05:03:18;1.70;;;1.60;;
2866;SDS011;1441;48.886;8.728;2022-11-20T05:05:43;1.80;;;1.70;;
2866;SDS011;1441;48.886;8.728;2022-11-20T05:08:09;3.07;;;1.63;;
2866;SDS011;1441;48.886;8.728;2022-11-20T05:10:34;2.47;;;1.23;;
2866;SDS011;1441;48.886;8.728;2022-11-20T05:13:00;2.93;;;1.57;;
2866;SDS011;1441;48.886;8.728;2022-11-20T05:15:26;2.40;;;1.50;;
2866;SDS011;1441;48.886;8.728;2022-11-20T05:17:51;1.23;;;1.23;;
2866;SDS011;1441;48.886;8.728;2022-11-20T05:20:18;1.43;;;1.33;;
2866;SDS011;1441;48.886;8.728;2022-11-20T05:22:44;1.33;;;1.20;;
2866;SDS011;1441;48.886;8.728;2022-11-20T05:25:10;2.17;;;1.73;;
2866;SDS011;1441;48.886;8.728;2022-11-20T05:27:36;2.87;;;0.90;;
2866;SDS011;1441;48.886;8.728;2022-11-20T05:30:06;1.57;;;0.93;;
2866;SDS011;1441;48.886;8.728;2022-11-20T05:32:32;1.10;;;0.90;;
2866;SDS011;1441;48.886;8.728;2022-11-20T05:34:57;2.30;;;1.30;;
2866;SDS011;1441;48.886;8.728;2022-11-20T05:37:23;1.13;;;1.10;;
2866;SDS011;1441;48.886;8.728;2022-11-20T05:39:49;1.00;;;1.00;;
2866;SDS011;1441;48.886;8.728;2022-11-20T05:42:14;0.83;;;0.83;;
2866;SDS011;1441;48.886;8.728;2022-11-20T05:44:55;1.57;;;0.93;;
2866;SDS011;1441;48.886;8.728;2022-11-20T05:47:21;2.33;;;0.90;;
2866;SDS011;1441;48.886;8.728;2022-11-20T05:49:46;1.27;;;0.90;;
2866;SDS011;1441;48.886;8.728;2022-11-20T05:52:12;2.00;;;1.17;;
2866;SDS011;1441;48.886;8.728;2022-11-20T05:54:37;1.87;;;1.00;;
2866;SDS011;1441;48.886;8.728;2022-11-20T05:57:03;1.00;;;1.00;;
2866;SDS011;1441;48.886;8.728;2022-11-20T05:59:28;0.67;;;0.67;;
2866;SDS011;1441;48.886;8.728;2022-11-20T06:01:54;0.77;;;0.77;;
2866;SDS011;1441;48.886;8.728;2022-11-20T06:04:20;0.70;;;0.70;;
2866;SDS011;1441;48.886;8.728;2022-11-20T06:06:46;0.70;;;0.70;;
2866;SDS011;1441;48.886;8.728;2022-11-20T06:09:12;0.80;;;0.70;;
2866;SDS011;1441;48.886;8.728;2022-11-20T06:11:37;1.33;;;1.17;;
2866;SDS011;1441;48.886;8.728;2022-11-20T06:14:03;2.30;;;0.90;;
2866;SDS011;1441;48.886;8.728;2022-11-20T06:16:29;0.80;;;0.80;;
2866;SDS011;1441;48.886;8.728;2022-11-20T06:18:54;1.17;;;1.10;;
2866;SDS011;1441;48.886;8.728;2022-11-20T06:21:20;1.00;;;1.00;;
2866;SDS011;1441;48.886;8.728;2022-11-20T06:23:47;1.03;;;0.90;;
2866;SDS011;1441;48.886;8.728;2022-11-20T06:26:18;0.87;;;0.87;;
2866;SDS011;1441;48.886;8.728;2022-11-20T06:28:48;3.13;;;2.00;;
2866;SDS011;1441;48.886;8.728;2022-11-20T06:31:15;1.17;;;0.90;;
2866;SDS011;1441;48.886;8.728;2022-11-20T06:33:42;1.17;;;0.70;;
2866;SDS011;1441;48.886;8.728;2022-11-20T06:36:09;3.00;;;0.80;;
2866;SDS011;1441;48.886;8.728;2022-11-20T06:38:36;1.47;;;1.10;;
2866;SDS011;1441;48.886;8.728;2022-11-20T06:41:03;1.10;;;1.00;;
2866;SDS011;1441;48.886;8.728;2022-11-20T06:43:29;1.23;;;0.90;;
2866;SDS011;1441;48.886;8.728;2022-11-20T06:45:55;1.87;;;0.70;;
2866;SDS011;1441;48.886;8.728;2022-11-20T06:48:22;0.67;;;0.67;;
2866;SDS011;1441;48.886;8.728;2022-11-20T06:50:49;0.70;;;0.70;;
2866;SDS011;1441;48.886;8.728;2022-11-20T06:53:15;1.00;;;1.00;;
2866;SDS011;1441;48.886;8.728;2022-11-20T06:55:44;0.80;;;0.80;;
2866;SDS011;1441;48.886;8.728;2022-11-20T06:58:11;1.50;;;1.00;;
2866;SDS011;1441;48.886;8.728;2022-11-20T07:00:37;0.90;;;0.90;;
2866;SDS011;1441;48.886;8.728;2022-11-20T07:03:06;1.23;;;0.80;;
2866;SDS011;1441;48.886;8.728;2022-11-20T07:05:33;0.80;;;0.80;;
2866;SDS011;1441;48.886;8.728;2022-11-20T07:08:00;3.57;;;0.90;;
2866;SDS011;1441;48.886;8.728;2022-11-20T07:10:26;1.00;;;0.70;;
2866;SDS011;1441;48.886;8.728;2022-11-20T07:12:52;0.70;;;0.67;;
2866;SDS011;1441;48.886;8.728;2022-11-20T07:15:19;0.50;;;0.50;;
2866;SDS011;1441;48.886;8.728;2022-11-20T07:17:45;1.53;;;0.80;;
2866;SDS011;1441;48.886;8.728;2022-11-20T07:20:11;0.70;;;0.70;;
2866;SDS011;1441;48.886;8.728;2022-11-20T07:22:37;0.60;;;0.60;;
2866;SDS011;1441;48.886;8.728;2022-11-20T07:25:03;1.27;;;0.60;;
2866;SDS011;1441;48.886;8.728;2022-11-20T07:27:29;0.50;;;0.50;;
2866;SDS011;1441;48.886;8.728;2022-11-20T07:29:55;0.83;;;0.60;;
2866;SDS011;1441;48.886;8.728;2022-11-20T07:32:22;0.53;;;0.53;;
2866;SDS011;1441;48.886;8.728;2022-11-20T07:34:48;0.53;;;0.53;;
2866;SDS011;1441;48.886;8.728;2022-11-20T07:37:14;0.47;;;0.47;;
2866;SDS011;1441;48.886;8.728;2022-11-20T07:39:39;0.50;;;0.50;;
2866;SDS011;1441;48.886;8.728;2022-11-20T07:42:08;1.50;;;0.47;;
2866;SDS011;1441;48.886;8.728;2022-11-20T07:44:34;1.30;;;0.60;;
2866;SDS011;1441;48.886;8.728;2022-11-20T07:47:00;0.70;;;0.60;;
2866;SDS011;1441;48.886;8.728;2022-11-20T07:49:27;1.27;;;1.17;;
2866;SDS011;1441;48.886;8.728;2022-11-20T07:51:53;1.30;;;1.20;;
2866;SDS011;1441;48.886;8.728;2022-11-20T07:54:19;1.00;;;1.00;;
2866;SDS011;1441;48.886;8.728;2022-11-20T07:56:46;0.93;;;0.93;;
2866;SDS011;1441;48.886;8.728;2022-11-20T07:59:12;1.00;;;0.90;;
2866;SDS011;1441;48.886;8.728;2022-11-20T08:01:38;0.80;;;0.80;;
2866;SDS011;1441;48.886;8.728;2022-11-20T08:04:04;0.60;;;0.60;;
2866;SDS011;1441;48.886;8.728;2022-11-20T08:06:30;0.50;;;0.50;;
2866;SDS011;1441;48.886;8.728;2022-11-20T08:08:55;5.23;;;0.90;;
2866;SDS011;1441;48.886;8.728;2022-11-20T08:11:21;1.73;;;0.70;;
2866;SDS011;1441;48.886;8.728;2022-11-20T08:14:05;1.00;;;1.00;;
2866;SDS011;1441;48.886;8.728;2022-11-20T08:16:37;0.70;;;0.70;;
2866;SDS011;1441;48.886;8.728;2022-11-20T08:19:03;0.67;;;0.67;;
2866;SDS011;1441;48.886;8.728;2022-11-20T08:21:29;0.50;;;0.50;;
2866;SDS011;1441;48.886;8.728;2022-11-20T08:23:56;0.90;;;0.73;;
2866;SDS011;1441;48.886;8.728;2022-11-20T08:26:22;0.60;;;0.60;;
2866;SDS011;1441;48.886;8.728;2022-11-20T08:28:48;0.80;;;0.80;;
2866;SDS011;1441;48.886;8.728;2022-11-20T08:31:14;0.70;;;0.70;;
2866;SDS011;1441;48.886;8.728;2022-11-20T08:33:40;0.90;;;0.90;;
2866;SDS011;1441;48.886;8.728;2022-11-20T08:36:05;0.80;;;0.80;;
2866;SDS011;1441;48.886;8.728;2022-11-20T08:38:31;1.50;;;0.77;;
2866;SDS011;1441;48.886;8.728;2022-11-20T08:40:58;0.70;;;0.70;;
2866;SDS011;1441;48.886;8.728;2022-11-20T08:43:43;1.13;;;0.60;;
2866;SDS011;1441;48.886;8.728;2022-11-20T08:46:09;0.70;;;0.70;;
2866;SDS011;1441;48.886;8.728;2022-11-20T08:48:34;6.30;;;1.03;;
2866;SDS011;1441;48.886;8.728;2022-11-20T08:51:00;1.03;;;0.67;;
2866;SDS011;1441;48.886;8.728;2022-11-20T08:53:26;1.00;;;0.70;;
2866;SDS011;1441;48.886;8.728;2022-11-20T08:55:52;0.70;;;0.70;;
2866;SDS011;1441;48.886;8.728;2022-11-20T08:58:18;1.50;;;0.80;;
2866;SDS011;1441;48.886;8.728;2022-11-20T09:00:43;1.00;;;0.70;;
2866;SDS011;1441;48.886;8.728;2022-11-20T09:03:09;0.90;;;0.90;;
2866;SDS011;1441;48.886;8.728;2022-11-20T09:05:35;0.80;;;0.80;;
2866;SDS011;1441;48.886;8.728;2022-11-20T09:08:00;1.00;;;1.00;;
2866;SDS011;1441;48.886;8.728;2022-11-20T09:10:26;1.33;;;1.10;;
2866;SDS011;1441;48.886;8.728;2022-11-20T09:12:53;1.53;;;1.30;;
2866;SDS011;1441;48.886;8.728;2022-11-20T09:15:20;1.67;;;1.50;;
2866;SDS011;1441;48.886;8.728;2022-11-20T09:17:55;1.80;;;1.70;;
2866;SDS011;1441;48.886;8.728;2022-11-20T09:20:24;1.70;;;1.60;;
2866;SDS011;1441;48.886;8.728;2022-11-20T09:22:51;3.77;;;2.13;;
2866;SDS011;1441;48.886;8.728;2022-11-20T09:25:17;2.07;;;1.60;;
2866;SDS011;1441;48.886;8.728;2022-11-20T09:27:43;3.73;;;2.17;;
2866;SDS011;1441;48.886;8.728;2022-11-20T09:30:11;3.07;;;2.30;;
2866;SDS011;1441;48.886;8.728;2022-11-20T09:32:40;2.40;;;2.03;;
2866;SDS011;1441;48.886;8.728;2022-11-20T09:35:05;2.07;;;1.97;;
2866;SDS011;1441;48.886;8.728;2022-11-20T09:37:31;1.87;;;1.77;;
2866;SDS011;1441;48.886;8.728;2022-11-20T09:39:57;3.77;;;1.73;;
2866;SDS011;1441;48.886;8.728;2022-11-20T09:56:42;5.30;;;2.07;;
2866;SDS011;1441;48.886;8.728;2022-11-20T09:59:19;1.70;;;1.60;;
2866;SDS011;1441;48.886;8.728;2022-11-20T10:01:54;1.97;;;1.77;;
2866;SDS011;1441;48.886;8.728;2022-11-20T10:04:21;1.30;;;1.30;;
2866;SDS011;1441;48.886;8.728;2022-11-20T10:09:53;1.80;;;1.53;;
2866;SDS011;1441;48.886;8.728;2022-11-20T10:12:30;4.27;;;1.77;;
2866;SDS011;1441;48.886;8.728;2022-11-20T10:18:02;3.93;;;2.37;;
2866;SDS011;1441;48.886;8.728;2022-11-20T10:23:22;2.57;;;2.37;;
2866;SDS011;1441;48.886;8.728;2022-11-20T10:26:20;2.70;;;2.50;;
2866;SDS011;1441;48.886;8.728;2022-11-20T10:29:10;2.60;;;2.30;;
2866;SDS011;1441;48.886;8.728;2022-11-20T10:34:14;3.43;;;2.90;;
2866;SDS011;1441;48.886;8.728;2022-11-20T10:37:00;3.70;;;2.80;;
2866;SDS011;1441;48.886;8.728;2022-11-20T10:39:35;3.07;;;2.53;;
2866;SDS011;1441;48.886;8.728;2022-11-20T10:42:24;2.37;;;2.17;;
2866;SDS011;1441;48.886;8.728;2022-11-20T10:44:58;3.80;;;2.30;;
2866;SDS011;1441;48.886;8.728;2022-11-20T10:47:48;3.67;;;2.37;;
2866;SDS011;1441;48.886;8.728;2022-11-20T10:50:15;6.87;;;2.40;;
2866;SDS011;1441;48.886;8.728;2022-11-20T11:01:02;3.10;;;2.40;;
2866;SDS011;1441;48.886;8.728;2022-11-20T11:03:39;3.80;;;2.67;;
2866;SDS011;1441;48.886;8.728;2022-11-20T11:09:12;3.80;;;2.23;;
2866;SDS011;1441;48.886;8.728;2022-11-20T11:11:48;2.30;;;1.83;;
2866;SDS011;1441;48.886;8.728;2022-11-20T11:14:15;6.13;;;1.97;;
2866;SDS011;1441;48.886;8.728;2022-11-20T11:16:54;9.40;;;2.03;;
2866;SDS011;1441;48.886;8.728;2022-11-20T11:19:21;3.30;;;1.70;;
2866;SDS011;1441;48.886;8.728;2022-11-20T11:21:56;1.47;;;1.30;;
2866;SDS011;1441;48.886;8.728;2022-11-20T11:27:00;5.10;;;2.30;;
2866;SDS011;1441;48.886;8.728;2022-11-20T11:29:31;5.60;;;2.10;;
2866;SDS011;1441;48.886;8.728;2022-11-20T11:34:34;6.20;;;2.13;;
2866;SDS011;1441;48.886;8.728;2022-11-20T11:37:00;7.07;;;2.43;;
2866;SDS011;1441;48.886;8.728;2022-11-20T11:39:28;3.60;;;2.33;;
2866;SDS011;1441;48.886;8.728;2022-11-20T11:41:55;2.70;;;2.07;;
2866;SDS011;1441;48.886;8.728;2022-11-20T11:44:23;4.03;;;1.80;;
2866;SDS011;1441;48.886;8.728;2022-11-20T11:47:36;3.67;;;1.50;;
2866;SDS011;1441;48.886;8.728;2022-11-20T11:55:07;3.87;;;2.30;;
2866;SDS011;1441;48.886;8.728;2022-11-20T12:00:17;4.20;;;2.50;;
2866;SDS011;1441;48.886;8.728;2022-11-20T12:05:30;1.17;;;1.17;;
2866;SDS011;1441;48.886;8.728;2022-11-20T12:08:21;7.47;;;2.20;;
2866;SDS011;1441;48.886;8.728;2022-11-20T12:14:04;2.47;;;1.20;;
2866;SDS011;1441;48.886;8.728;2022-11-20T12:16:49;2.30;;;1.50;;
2866;SDS011;1441;48.886;8.728;2022-11-20T12:19:17;4.50;;;1.43;;
2866;SDS011;1441;48.886;8.728;2022-11-20T12:29:49;1.80;;;1.20;;
2866;SDS011;1441;48.886;8.728;2022-11-20T12:57:34;1.70;;;0.80;;
2866;SDS011;1441;48.886;8.728;2022-11-20T13:00:20;7.57;;;4.80;;
2866;SDS011;1441;48.886;8.728;2022-11-20T13:03:07;2.67;;;2.20;;
2866;SDS011;1441;48.886;8.728;2022-11-20T13:05:58;6.60;;;1.93;;
2866;SDS011;1441;48.886;8.728;2022-11-20T13:08:35;2.20;;;1.30;;
2866;SDS011;1441;48.886;8.728;2022-11-20T13:11:07;2.13;;;1.57;;
2866;SDS011;1441;48.886;8.728;2022-11-20T13:13:40;2.90;;;1.40;;
2866;SDS011;1441;48.886;8.728;2022-11-20T13:16:33;7.77;;;1.10;;
2866;SDS011;1441;48.886;8.728;2022-11-20T13:19:13;2.10;;;1.00;;
2866;SDS011;1441;48.886;8.728;2022-11-20T13:21:44;2.60;;;1.30;;
2866;SDS011;1441;48.886;8.728;2022-11-20T13:29:33;1.70;;;1.10;;
2866;SDS011;1441;48.886;8.728;2022-11-20T13:32:18;1.37;;;0.90;;
2866;SDS011;1441;48.886;8.728;2022-11-20T13:34:55;3.87;;;1.20;;
2866;SDS011;1441;48.886;8.728;2022-11-20T13:40:05;1.03;;;0.87;;
2866;SDS011;1441;48.886;8.728;2022-11-20T13:42:31;3.27;;;1.10;;
2866;SDS011;1441;48.886;8.728;2022-11-20T13:45:08;1.00;;;0.80;;
2866;SDS011;1441;48.886;8.728;2022-11-20T13:47:36;3.67;;;1.00;;
2866;SDS011;1441;48.886;8.728;2022-11-20T13:50:03;1.90;;;1.00;;
2866;SDS011;1441;48.886;8.728;2022-11-20T13:53:04;2.63;;;1.20;;
2866;SDS011;1441;48.886;8.728;2022-11-20T14:01:51;4.50;;;1.87;;
2866;SDS011;1441;48.886;8.728;2022-11-20T14:04:18;2.90;;;1.30;;
2866;SDS011;1441;48.886;8.728;2022-11-20T14:06:50;4.73;;;1.17;;
2866;SDS011;1441;48.886;8.728;2022-11-20T14:09:29;1.87;;;1.40;;
2866;SDS011;1441;48.886;8.728;2022-11-20T14:11:57;2.20;;;1.20;;
2866;SDS011;1441;48.886;8.728;2022-11-20T14:14:24;3.27;;;1.97;;
2866;SDS011;1441;48.886;8.728;2022-11-20T14:17:07;2.90;;;1.70;;
2866;SDS011;1441;48.886;8.728;2022-11-20T14:19:41;5.47;;;2.20;;
2866;SDS011;1441;48.886;8.728;2022-11-20T14:24:38;6.10;;;2.33;;
2866;SDS011;1441;48.886;8.728;2022-11-20T14:27:04;8.17;;;2.57;;
2866;SDS011;1441;48.886;8.728;2022-11-20T14:29:33;8.30;;;4.30;;
2866;SDS011;1441;48.886;8.728;2022-11-20T14:32:01;3.50;;;2.20;;
2866;SDS011;1441;48.886;8.728;2022-11-20T14:34:29;5.00;;;2.07;;
2866;SDS011;1441;48.886;8.728;2022-11-20T14:37:01;3.43;;;1.47;;
2866;SDS011;1441;48.886;8.728;2022-11-20T14:39:30;2.80;;;2.10;;
2866;SDS011;1441;48.886;8.728;2022-11-20T14:42:00;6.27;;;2.43;;
2866;SDS011;1441;48.886;8.728;2022-11-20T14:44:27;3.43;;;0.90;;
2866;SDS011;1441;48.886;8.728;2022-11-20T14:46:56;3.30;;;1.70;;
2866;SDS011;1441;48.886;8.728;2022-11-20T14:49:24;1.90;;;1.70;;
2866;SDS011;1441;48.886;8.728;2022-11-20T14:52:00;3.57;;;1.47;;
2866;SDS011;1441;48.886;8.728;2022-11-20T14:54:28;6.27;;;2.10;;
2866;SDS011;1441;48.886;8.728;2022-11-20T14:56:59;4.57;;;1.93;;
2866;SDS011;1441;48.886;8.728;2022-11-20T14:59:28;4.10;;;1.73;;
2866;SDS011;1441;48.886;8.728;2022-11-20T15:01:56;2.00;;;1.13;;
2866;SDS011;1441;48.886;8.728;2022-11-20T15:04:25;1.90;;;1.50;;
2866;SDS011;1441;48.886;8.728;2022-11-20T15:06:52;3.20;;;1.13;;
2866;SDS011;1441;48.886;8.728;2022-11-20T15:09:22;1.70;;;0.90;;
2866;SDS011;1441;48.886;8.728;2022-11-20T15:11:55;5.07;;;1.00;;
2866;SDS011;1441;48.886;8.728;2022-11-20T15:14:24;1.17;;;1.03;;
2866;SDS011;1441;48.886;8.728;2022-11-20T15:16:51;1.87;;;0.93;;
2866;SDS011;1441;48.886;8.728;2022-11-20T15:19:21;3.07;;;0.90;;
2866;SDS011;1441;48.886;8.728;2022-11-20T15:21:51;1.23;;;0.87;;
2866;SDS011;1441;48.886;8.728;2022-11-20T15:24:17;0.80;;;0.80;;
2866;SDS011;1441;48.886;8.728;2022-11-20T15:26:43;3.57;;;1.10;;
2866;SDS011;1441;48.886;8.728;2022-11-20T15:29:10;0.70;;;0.70;;
2866;SDS011;1441;48.886;8.728;2022-11-20T15:31:38;2.30;;;1.00;;
2866;SDS011;1441;48.886;8.728;2022-11-20T15:34:13;1.00;;;0.90;;
2866;SDS011;1441;48.886;8.728;2022-11-20T15:36:40;3.47;;;1.17;;
2866;SDS011;1441;48.886;8.728;2022-11-20T15:39:07;1.63;;;0.70;;
2866;SDS011;1441;48.886;8.728;2022-11-20T15:41:36;1.53;;;0.80;;
2866;SDS011;1441;48.886;8.728;2022-11-20T15:44:05;1.90;;;0.90;;
2866;SDS011;1441;48.886;8.728;2022-11-20T15:46:31;3.80;;;2.23;;
2866;SDS011;1441;48.886;8.728;2022-11-20T15:49:03;2.93;;;1.20;;
2866;SDS011;1441;48.886;8.728;2022-11-20T15:51:33;2.03;;;1.53;;
2866;SDS011;1441;48.886;8.728;2022-11-20T15:54:00;2.90;;;1.13;;
2866;SDS011;1441;48.886;8.728;2022-11-20T15:56:34;3.20;;;1.80;;
2866;SDS011;1441;48.886;8.728;2022-11-20T15:58:59;5.97;;;1.77;;
2866;SDS011;1441;48.886;8.728;2022-11-20T16:01:25;2.50;;;1.27;;
2866;SDS011;1441;48.886;8.728;2022-11-20T16:03:50;3.43;;;1.00;;
2866;SDS011;1441;48.886;8.728;2022-11-20T16:06:16;1.83;;;1.10;;
2866;SDS011;1441;48.886;8.728;2022-11-20T16:08:42;1.10;;;0.90;;
2866;SDS011;1441;48.886;8.728;2022-11-20T16:11:10;5.97;;;1.37;;
2866;SDS011;1441;48.886;8.728;2022-11-20T16:13:37;1.70;;;1.00;;
2866;SDS011;1441;48.886;8.728;2022-11-20T16:16:42;1.00;;;0.97;;
2866;SDS011;1441;48.886;8.728;2022-11-20T16:19:14;0.87;;;0.87;;
2866;SDS011;1441;48.886;8.728;2022-11-20T16:21:41;1.30;;;1.13;;
2866;SDS011;1441;48.886;8.728;2022-11-20T16:24:08;1.03;;;0.93;;
2866;SDS011;1441;48.886;8.728;2022-11-20T16:26:37;1.53;;;0.93;;
2866;SDS011;1441;48.886;8.728;2022-11-20T16:29:03;1.40;;;0.90;;
2866;SDS011;1441;48.886;8.728;2022-11-20T16:31:30;1.80;;;1.07;;
2866;SDS011;1441;48.886;8.728;2022-11-20T16:33:58;4.57;;;1.47;;
2866;SDS011;1441;48.886;8.728;2022-11-20T16:36:26;1.70;;;0.80;;
2866;SDS011;1441;48.886;8.728;2022-11-20T16:38:57;0.77;;;0.77;;
2866;SDS011;1441;48.886;8.728;2022-11-20T16:41:25;1.80;;;0.90;;
2866;SDS011;1441;48.886;8.728;2022-11-20T16:43:55;1.43;;;1.00;;
2866;SDS011;1441;48.886;8.728;2022-11-20T16:46:23;1.33;;;1.03;;
2866;SDS011;1441;48.886;8.728;2022-11-20T16:48:53;1.23;;;0.80;;
2866;SDS011;1441;48.886;8.728;2022-11-20T16:51:19;1.93;;;1.63;;
2866;SDS011;1441;48.886;8.728;2022-11-20T16:53:45;2.53;;;1.43;;
2866;SDS011;1441;48.886;8.728;2022-11-20T16:58:37;1.67;;;1.47;;
2866;SDS011;1441;48.886;8.728;2022-11-20T17:01:07;2.50;;;1.17;;
2866;SDS011;1441;48.886;8.728;2022-11-20T17:03:35;2.00;;;0.80;;
2866;SDS011;1441;48.886;8.728;2022-11-20T17:06:08;2.40;;;0.90;;
2866;SDS011;1441;48.886;8.728;2022-11-20T17:08:42;1.53;;;0.70;;
2866;SDS011;1441;48.886;8.728;2022-11-20T17:11:09;0.93;;;0.60;;
2866;SDS011;1441;48.886;8.728;2022-11-20T17:13:39;1.90;;;0.80;;
2866;SDS011;1441;48.886;8.728;2022-11-20T17:16:10;3.40;;;0.93;;
2866;SDS011;1441;48.886;8.728;2022-11-20T17:18:40;0.90;;;0.73;;
2866;SDS011;1441;48.886;8.728;2022-11-20T17:21:06;0.77;;;0.60;;
2866;SDS011;1441;48.886;8.728;2022-11-20T17:23:32;1.23;;;0.90;;